Hauptseite
METAR-TAF:

METAR-TAF

Flughäfen :

Bagdad, Irak

Flughafen Bagdad

Breite: 33-15-45N, Länge: 44-14-04E, Höhe: 35 m

Beobachtung

Neuester Wetterbericht von vor 48 Minuten, um 23:00 UTC
Wind 9 kt aus Ost/Südost
Temperatur 36°C
Luftfeuchtigkeit 27%
Luftdruck 999 hPa
Sichtweite 10 km oder mehr
Aufgelockert bewölkt in der Höhe von 3000 ft

METAR: ORBI 162300Z 12009KT 9999 SCT030 36/14 Q0999 NOSIG

Zeit: 02:48 (23:48 UTC)

Prognose

Neuester Wetterbericht von vor 1 Stunde und 48 Minuten, um 22:00 UTC
Gültige Prognose vom 17 um 00 UTC bis 17 um 24 UTC
Wind 8 kt aus Ost/Südost
Sichtweite: 7000 m
Aufgelockert bewölkt in der Höhe von 4000 ft
Übergehend zu
vom 17 um 08 UTC bis 17 um 10 UTC
Wind 8 kt aus West/Nordwest

TAF: ORBI 162200Z 1700/1724 12008KT 7000 SCT040 BECMG 1708/1710 30008KT NSC

Wetterbeobachtungen und Prognosen von mehr als 4000 Flughäfen (METAR und TAF Bericht).

Die verfügbaren Stationen werden durch gelbe und rote Markierungen auf der Karte dargestellt.

Führen Sie die Maus auf sie, um den Namen der Station zu sehen.

Darauf klicken, um die Beobachtung von Wetterbeobachtungen und Prognosen zu sehen.

Um die Karte zu ändern : klicken Sie auf den grünen Tasten mit einem schwarzen Kreuz Zum Vergrößern, auf den grünen Button mit einem Gedankenstrich zu verkleinern, oder auf die grünen Pfeile für benachbarte Karten.


METAR-TAF: